createdAt,value
2023-02-05T00:00:03.896Z,6.00
2023-02-05T00:01:04.051Z,8.20
2023-02-05T00:02:03.979Z,5.60
2023-02-05T00:03:04.160Z,5.20
2023-02-05T00:04:04.084Z,5.90
2023-02-05T00:05:04.096Z,4.80
2023-02-05T00:06:04.111Z,4.50
2023-02-05T00:07:04.004Z,4.00
2023-02-05T00:08:04.014Z,4.10
2023-02-05T00:09:04.146Z,5.10
2023-02-05T00:10:04.050Z,4.20
2023-02-05T00:11:04.048Z,4.20
2023-02-05T00:12:04.096Z,6.80
2023-02-05T00:13:04.202Z,5.80
2023-02-05T00:14:04.087Z,6.10
2023-02-05T00:15:04.222Z,8.40
2023-02-05T00:16:04.237Z,8.30
2023-02-05T00:17:04.117Z,7.30
2023-02-05T00:18:04.266Z,6.80
2023-02-05T00:19:04.281Z,7.30
2023-02-05T00:20:04.159Z,10.30
2023-02-05T00:21:04.302Z,10.60
2023-02-05T00:22:04.196Z,5.60
2023-02-05T00:23:04.329Z,6.20
2023-02-05T00:24:04.340Z,5.90
2023-02-05T00:25:04.356Z,6.30
2023-02-05T00:26:04.380Z,6.60
2023-02-05T00:27:04.383Z,6.50
2023-02-05T00:28:04.377Z,6.30
2023-02-05T00:29:04.410Z,5.40
2023-02-05T00:30:04.298Z,5.70
2023-02-05T00:31:04.566Z,5.50
2023-02-05T00:32:04.455Z,9.10
2023-02-05T00:33:04.326Z,11.50
2023-02-05T00:34:04.342Z,8.60
2023-02-05T00:35:04.494Z,9.40
2023-02-05T00:36:04.369Z,8.90
2023-02-05T00:37:04.516Z,10.20
2023-02-05T00:38:04.402Z,7.40
2023-02-05T00:39:04.428Z,6.40
2023-02-05T00:40:04.432Z,7.90
2023-02-05T00:41:04.568Z,7.10
2023-02-05T00:42:04.455Z,5.10
2023-02-05T00:43:04.592Z,6.20
2023-02-05T00:44:04.484Z,5.20
2023-02-05T00:45:04.617Z,4.40
2023-02-05T00:46:04.543Z,4.70
2023-02-05T00:47:04.646Z,4.70
2023-02-05T00:48:04.661Z,5.90
2023-02-05T00:49:04.670Z,4.90
2023-02-05T00:50:04.558Z,5.60
2023-02-05T00:51:04.696Z,4.00
2023-02-05T00:52:04.576Z,3.90
2023-02-05T00:53:04.589Z,4.70
2023-02-05T00:54:04.640Z,4.90
2023-02-05T00:55:04.752Z,3.40
2023-02-05T00:56:04.638Z,4.90
2023-02-05T00:57:04.777Z,3.90
2023-02-05T00:58:04.790Z,5.30
2023-02-05T00:59:04.684Z,4.20
2023-02-05T01:00:04.684Z,4.00
2023-02-05T01:01:04.858Z,4.30
2023-02-05T01:02:04.706Z,5.00
2023-02-05T01:03:04.742Z,4.30
2023-02-05T01:04:04.873Z,3.70
2023-02-05T01:05:04.931Z,3.40
2023-02-05T01:06:04.760Z,4.10
2023-02-05T01:07:04.913Z,5.60
2023-02-05T01:08:04.804Z,4.30
2023-02-05T01:09:04.943Z,3.80
2023-02-05T01:10:04.963Z,3.80
2023-02-05T01:11:04.961Z,3.50
2023-02-05T01:12:04.862Z,4.10
2023-02-05T01:13:04.860Z,4.50
2023-02-05T01:14:04.889Z,4.60
2023-02-05T01:15:05.014Z,4.90
2023-02-05T01:16:05.002Z,4.10
2023-02-05T01:17:04.931Z,6.10
2023-02-05T01:18:04.943Z,5.90
2023-02-05T01:19:05.069Z,5.50
2023-02-05T01:20:04.955Z,10.00
2023-02-05T01:21:05.092Z,11.40
2023-02-05T01:22:04.972Z,7.20
2023-02-05T01:23:05.012Z,5.40
2023-02-05T01:24:05.149Z,5.10
2023-02-05T01:25:05.181Z,7.30
2023-02-05T01:26:05.158Z,9.50
2023-02-05T01:27:05.172Z,6.30
2023-02-05T01:28:05.089Z,6.00
2023-02-05T01:29:05.073Z,5.70
2023-02-05T01:30:05.093Z,5.30
2023-02-05T01:31:05.293Z,4.80
2023-02-05T01:32:05.232Z,4.00
2023-02-05T01:33:05.115Z,3.90
2023-02-05T01:34:05.148Z,4.40
2023-02-05T01:35:05.272Z,6.10
2023-02-05T01:36:05.154Z,5.60
2023-02-05T01:37:05.312Z,4.80
2023-02-05T01:38:05.191Z,4.90
2023-02-05T01:39:05.212Z,4.00
2023-02-05T01:40:05.224Z,4.00
2023-02-05T01:41:05.346Z,4.90
2023-02-05T01:42:05.224Z,5.10
2023-02-05T01:43:05.369Z,4.90
2023-02-05T01:44:05.257Z,3.80
2023-02-05T01:45:05.393Z,4.80
2023-02-05T01:46:05.328Z,4.50
2023-02-05T01:47:05.427Z,6.90
2023-02-05T01:48:05.305Z,4.90
2023-02-05T01:49:05.317Z,4.60
2023-02-05T01:50:05.351Z,8.00
2023-02-05T01:51:05.468Z,5.00
2023-02-05T01:52:05.353Z,6.30
2023-02-05T01:53:05.494Z,4.20
2023-02-05T01:54:05.373Z,5.70
2023-02-05T01:55:05.525Z,4.40
2023-02-05T01:56:05.404Z,4.60
2023-02-05T01:57:05.553Z,6.00
2023-02-05T01:58:05.568Z,3.60
2023-02-05T01:59:05.578Z,4.60
2023-02-05T02:00:05.448Z,4.40
2023-02-05T02:01:05.478Z,5.20
2023-02-05T02:02:05.504Z,5.10
2023-02-05T02:03:05.635Z,4.00
2023-02-05T02:04:05.503Z,4.50
2023-02-05T02:05:05.746Z,3.30
2023-02-05T02:06:05.531Z,5.00
2023-02-05T02:07:05.670Z,4.50
2023-02-05T02:08:05.693Z,4.20
2023-02-05T02:09:05.704Z,4.20
2023-02-05T02:10:05.711Z,5.00
2023-02-05T02:11:05.726Z,4.70
2023-02-05T02:12:05.604Z,4.40
2023-02-05T02:13:05.753Z,4.40
2023-02-05T02:14:05.638Z,5.00
2023-02-05T02:15:05.641Z,4.60
2023-02-05T02:16:05.680Z,6.60
2023-02-05T02:17:05.806Z,5.30
2023-02-05T02:18:05.814Z,4.50
2023-02-05T02:19:05.827Z,5.10
2023-02-05T02:20:05.711Z,3.80
2023-02-05T02:21:05.852Z,3.90
2023-02-05T02:22:05.863Z,4.10
2023-02-05T02:23:05.876Z,4.90
2023-02-05T02:24:05.757Z,5.20
2023-02-05T02:25:05.791Z,4.80
2023-02-05T02:26:05.798Z,4.30
2023-02-05T02:27:05.928Z,4.40
2023-02-05T02:28:05.975Z,5.10
2023-02-05T02:29:05.838Z,5.90
2023-02-05T02:30:05.854Z,6.20
2023-02-05T02:31:06.048Z,5.10
2023-02-05T02:32:05.868Z,4.70
2023-02-05T02:33:06.003Z,5.90
2023-02-05T02:34:05.889Z,7.90
2023-02-05T02:35:06.030Z,5.10
2023-02-05T02:36:06.047Z,4.50
2023-02-05T02:37:06.055Z,5.70
2023-02-05T02:38:05.946Z,6.30
2023-02-05T02:39:06.087Z,4.60
2023-02-05T02:40:06.093Z,4.80
2023-02-05T02:41:06.108Z,4.50
2023-02-05T02:42:06.013Z,4.60
2023-02-05T02:43:06.131Z,7.80
2023-02-05T02:44:06.022Z,7.60
2023-02-05T02:45:06.032Z,5.10
2023-02-05T02:46:06.049Z,4.80
2023-02-05T02:47:06.195Z,5.40
2023-02-05T02:48:06.070Z,5.40
2023-02-05T02:49:06.211Z,5.00
2023-02-05T02:50:06.232Z,5.30
2023-02-05T02:51:06.128Z,5.10
2023-02-05T02:52:06.139Z,6.40
2023-02-05T02:53:06.265Z,5.30
2023-02-05T02:54:06.279Z,10.10
2023-02-05T02:55:06.305Z,4.90
2023-02-05T02:56:06.182Z,5.90
2023-02-05T02:57:06.190Z,6.50
2023-02-05T02:58:06.206Z,5.00
2023-02-05T02:59:06.368Z,5.10
2023-02-05T03:00:06.357Z,6.00
2023-02-05T03:01:06.448Z,7.40
2023-02-05T03:02:06.267Z,7.00
2023-02-05T03:03:06.286Z,9.00
2023-02-05T03:04:06.329Z,10.60
2023-02-05T03:05:06.420Z,8.70
2023-02-05T03:06:06.434Z,10.80
2023-02-05T03:07:06.445Z,8.80
2023-02-05T03:08:06.334Z,12.50
2023-02-05T03:09:06.468Z,9.20
2023-02-05T03:10:06.487Z,7.50
2023-02-05T03:11:06.365Z,8.00
2023-02-05T03:12:06.508Z,6.80
2023-02-05T03:13:06.394Z,9.80
2023-02-05T03:14:06.411Z,10.50
2023-02-05T03:15:06.415Z,10.10
2023-02-05T03:16:06.605Z,6.70
2023-02-05T03:17:06.444Z,8.20
2023-02-05T03:18:06.586Z,7.70
2023-02-05T03:19:06.469Z,7.30
2023-02-05T03:20:06.498Z,6.70
2023-02-05T03:21:06.503Z,6.20
2023-02-05T03:22:06.635Z,7.10
2023-02-05T03:23:06.529Z,8.10
2023-02-05T03:24:06.662Z,8.40
2023-02-05T03:25:06.672Z,7.60
2023-02-05T03:26:06.685Z,8.30
2023-02-05T03:27:06.569Z,9.20
2023-02-05T03:28:06.735Z,10.90
2023-02-05T03:29:06.600Z,9.40
2023-02-05T03:30:06.736Z,9.80
2023-02-05T03:31:06.739Z,9.00
2023-02-05T03:32:06.759Z,8.00
2023-02-05T03:33:06.643Z,7.70
2023-02-05T03:34:06.705Z,8.00
2023-02-05T03:35:06.669Z,7.90
2023-02-05T03:36:06.815Z,7.80
2023-02-05T03:37:06.691Z,8.00
2023-02-05T03:38:06.835Z,7.20
2023-02-05T03:39:06.737Z,10.10
2023-02-05T03:40:06.728Z,7.80
2023-02-05T03:41:06.738Z,5.80
2023-02-05T03:42:06.889Z,5.70
2023-02-05T03:43:06.766Z,8.20
2023-02-05T03:44:06.909Z,6.20
2023-02-05T03:45:06.799Z,6.00
2023-02-05T03:46:06.873Z,7.00
2023-02-05T03:47:06.948Z,6.70
2023-02-05T03:48:06.960Z,6.70
2023-02-05T03:49:06.854Z,5.30
2023-02-05T03:50:06.894Z,6.10
2023-02-05T03:51:06.880Z,5.20
2023-02-05T03:52:07.014Z,8.00
2023-02-05T03:53:06.892Z,5.90
2023-02-05T03:54:07.036Z,6.20
2023-02-05T03:55:07.044Z,5.30
2023-02-05T03:56:06.927Z,6.30
2023-02-05T03:57:07.073Z,8.70
2023-02-05T03:58:07.079Z,6.00
2023-02-05T03:59:07.125Z,5.70
2023-02-05T04:00:07.113Z,5.00
2023-02-05T04:01:07.035Z,5.60
2023-02-05T04:02:07.072Z,6.20
2023-02-05T04:03:07.017Z,5.30
2023-02-05T04:04:07.152Z,6.00
2023-02-05T04:05:07.054Z,6.80
2023-02-05T04:06:07.184Z,5.70
2023-02-05T04:07:07.188Z,6.10
2023-02-05T04:08:07.202Z,4.70
2023-02-05T04:09:07.215Z,5.80
2023-02-05T04:10:07.227Z,5.20
2023-02-05T04:11:07.106Z,4.50
2023-02-05T04:12:07.251Z,7.20
2023-02-05T04:13:07.264Z,5.10
2023-02-05T04:14:07.276Z,5.50
2023-02-05T04:15:07.163Z,6.40
2023-02-05T04:16:07.229Z,6.00
2023-02-05T04:17:07.310Z,3.90
2023-02-05T04:18:07.324Z,4.20
2023-02-05T04:19:07.206Z,3.90
2023-02-05T04:20:07.348Z,4.20
2023-02-05T04:21:07.367Z,5.40
2023-02-05T04:22:07.378Z,8.10
2023-02-05T04:23:07.252Z,6.10
2023-02-05T04:24:07.476Z,4.40
2023-02-05T04:25:07.294Z,5.60
2023-02-05T04:26:07.306Z,4.20
2023-02-05T04:27:07.304Z,3.90
2023-02-05T04:28:07.521Z,3.60
2023-02-05T04:29:07.338Z,5.50
2023-02-05T04:30:07.484Z,3.90
2023-02-05T04:31:07.403Z,4.40
2023-02-05T04:32:07.505Z,6.00
2023-02-05T04:33:07.513Z,5.10
2023-02-05T04:34:07.528Z,6.80
2023-02-05T04:35:07.418Z,4.90
2023-02-05T04:36:07.416Z,3.80
2023-02-05T04:37:07.572Z,3.20
2023-02-05T04:38:07.581Z,6.00
2023-02-05T04:39:07.461Z,3.50
2023-02-05T04:40:07.603Z,5.20
2023-02-05T04:41:07.493Z,4.80
2023-02-05T04:42:07.642Z,4.30
2023-02-05T04:43:07.639Z,4.00
2023-02-05T04:44:07.659Z,4.30
2023-02-05T04:45:07.533Z,3.90
2023-02-05T04:46:07.571Z,4.70
2023-02-05T04:47:07.564Z,3.80
2023-02-05T04:48:07.702Z,3.60
2023-02-05T04:49:07.731Z,3.60
2023-02-05T04:50:07.733Z,4.60
2023-02-05T04:51:07.606Z,6.30
2023-02-05T04:52:07.627Z,3.40
2023-02-05T04:53:07.632Z,4.10
2023-02-05T04:54:07.781Z,4.60
2023-02-05T04:55:07.662Z,7.00
2023-02-05T04:56:07.820Z,6.20
2023-02-05T04:57:07.690Z,4.70
2023-02-05T04:58:07.715Z,5.10
2023-02-05T04:59:07.704Z,5.40
2023-02-05T05:00:07.851Z,5.20
2023-02-05T05:01:07.777Z,4.50
2023-02-05T05:02:07.768Z,3.20
2023-02-05T05:03:07.888Z,3.20
2023-02-05T05:04:07.792Z,5.30
2023-02-05T05:05:07.786Z,3.40
2023-02-05T05:06:07.933Z,3.90
2023-02-05T05:07:07.816Z,2.90
2023-02-05T05:08:07.957Z,2.70
2023-02-05T05:09:07.964Z,2.90
2023-02-05T05:10:07.981Z,5.20
2023-02-05T05:11:07.988Z,4.70
2023-02-05T05:12:08.019Z,2.30
2023-02-05T05:13:08.011Z,3.50
2023-02-05T05:14:08.022Z,3.40
2023-02-05T05:15:07.910Z,4.30
2023-02-05T05:16:08.132Z,3.90
2023-02-05T05:17:07.938Z,4.10
2023-02-05T05:18:08.075Z,5.10
2023-02-05T05:19:07.953Z,4.40
2023-02-05T05:20:08.100Z,5.90
2023-02-05T05:21:07.988Z,6.60
2023-02-05T05:22:08.135Z,2.90
2023-02-05T05:23:08.135Z,6.40
2023-02-05T05:24:08.150Z,4.20
2023-02-05T05:25:08.037Z,3.50
2023-02-05T05:26:08.069Z,3.60
2023-02-05T05:27:08.055Z,10.30
2023-02-05T05:28:08.219Z,7.80
2023-02-05T05:29:08.073Z,7.20
2023-02-05T05:30:08.223Z,3.30
2023-02-05T05:31:08.176Z,3.20
2023-02-05T05:32:08.151Z,3.20
2023-02-05T05:33:08.124Z,4.90
2023-02-05T05:34:08.273Z,6.80
2023-02-05T05:35:08.282Z,4.40
2023-02-05T05:36:08.348Z,4.90
2023-02-05T05:37:08.176Z,5.20
2023-02-05T05:38:08.205Z,6.70
2023-02-05T05:39:08.200Z,3.90
2023-02-05T05:40:08.348Z,4.50
2023-02-05T05:41:08.230Z,3.50
2023-02-05T05:42:08.373Z,5.80
2023-02-05T05:43:08.275Z,2.50
2023-02-05T05:44:08.269Z,4.40
2023-02-05T05:45:08.302Z,11.20
2023-02-05T05:46:08.503Z,6.10
2023-02-05T05:47:08.308Z,6.70
2023-02-05T05:48:08.452Z,4.10
2023-02-05T05:49:08.340Z,4.80
2023-02-05T05:50:08.474Z,4.00
2023-02-05T05:51:08.486Z,4.40
2023-02-05T05:52:08.501Z,3.20
2023-02-05T05:53:08.384Z,6.80
2023-02-05T05:54:08.388Z,6.10
2023-02-05T05:55:08.532Z,3.10
2023-02-05T05:56:08.544Z,2.70
2023-02-05T05:57:08.435Z,4.40
2023-02-05T05:58:08.570Z,4.60
2023-02-05T05:59:08.471Z,4.70
2023-02-05T06:00:08.460Z,4.60
2023-02-05T06:01:08.480Z,7.70
2023-02-05T06:02:08.652Z,3.70
2023-02-05T06:03:08.510Z,4.70
2023-02-05T06:04:08.542Z,2.90
2023-02-05T06:05:08.521Z,5.50
2023-02-05T06:06:08.666Z,3.40
2023-02-05T06:07:08.562Z,3.80
2023-02-05T06:08:08.688Z,3.50
2023-02-05T06:09:08.577Z,2.60
2023-02-05T06:10:08.721Z,2.50
2023-02-05T06:11:08.765Z,2.70
2023-02-05T06:12:10.064Z,3.60
2023-02-05T06:13:08.617Z,2.50
2023-02-05T06:14:08.789Z,2.90
2023-02-05T06:15:08.674Z,3.60
2023-02-05T06:16:08.730Z,3.40
2023-02-05T06:17:08.667Z,3.20
2023-02-05T06:18:08.825Z,3.20
2023-02-05T06:19:08.706Z,4.10
2023-02-05T06:20:08.723Z,3.20
2023-02-05T06:21:08.850Z,3.10
2023-02-05T06:22:08.872Z,3.70
2023-02-05T06:23:08.759Z,3.60
2023-02-05T06:24:08.886Z,3.30
2023-02-05T06:25:08.899Z,4.20
2023-02-05T06:26:08.912Z,4.80
2023-02-05T06:27:08.809Z,3.80
2023-02-05T06:28:08.861Z,2.90
2023-02-05T06:29:08.948Z,4.60
2023-02-05T06:30:08.961Z,2.70
2023-02-05T06:31:09.162Z,3.30
2023-02-05T06:32:08.984Z,3.40
2023-02-05T06:33:08.866Z,3.50
2023-02-05T06:34:09.019Z,2.80
2023-02-05T06:35:09.022Z,2.60
2023-02-05T06:36:09.035Z,4.00
2023-02-05T06:37:08.922Z,2.70
2023-02-05T06:38:08.946Z,3.50
2023-02-05T06:39:08.960Z,2.80
2023-02-05T06:40:08.950Z,4.00
2023-02-05T06:41:08.970Z,4.50
2023-02-05T06:42:09.111Z,5.10
2023-02-05T06:43:09.003Z,3.00
2023-02-05T06:44:09.136Z,2.70
2023-02-05T06:45:09.148Z,2.40
2023-02-05T06:46:09.171Z,3.20
2023-02-05T06:47:09.047Z,2.30
2023-02-05T06:48:09.182Z,2.80
2023-02-05T06:49:09.070Z,2.80
2023-02-05T06:50:09.093Z,2.60
2023-02-05T06:51:09.088Z,3.40
2023-02-05T06:52:09.231Z,2.60
2023-02-05T06:53:11.528Z,3.10
2023-02-05T06:54:09.256Z,3.90
2023-02-05T06:55:09.151Z,2.80
2023-02-05T06:56:09.154Z,3.60
2023-02-05T06:57:09.300Z,5.90
2023-02-05T06:58:09.308Z,3.80
2023-02-05T06:59:09.199Z,3.20
2023-02-05T07:00:09.346Z,3.30
2023-02-05T07:01:09.212Z,2.70
2023-02-05T07:02:09.359Z,4.30
2023-02-05T07:03:09.372Z,2.70
2023-02-05T07:04:09.382Z,2.90
2023-02-05T07:05:09.269Z,3.50
2023-02-05T07:06:09.276Z,5.50
2023-02-05T07:07:09.424Z,4.00
2023-02-05T07:08:09.436Z,4.80
2023-02-05T07:09:09.329Z,2.90
2023-02-05T07:10:09.466Z,3.20
2023-02-05T07:11:09.356Z,3.80
2023-02-05T07:12:09.364Z,3.10
2023-02-05T07:13:09.361Z,2.80
2023-02-05T07:14:09.526Z,3.50
2023-02-05T07:15:09.407Z,5.20
2023-02-05T07:16:09.538Z,3.50
2023-02-05T07:17:09.557Z,3.60
2023-02-05T07:18:09.557Z,3.50
2023-02-05T07:19:09.435Z,2.90
2023-02-05T07:20:09.587Z,3.10
2023-02-05T07:21:09.476Z,2.80
2023-02-05T07:22:09.614Z,4.50
2023-02-05T07:23:09.486Z,3.00
2023-02-05T07:24:09.634Z,3.40
2023-02-05T07:25:09.647Z,4.10
2023-02-05T07:26:09.541Z,3.50
2023-02-05T07:27:09.671Z,4.10
2023-02-05T07:28:09.745Z,3.20
2023-02-05T07:29:09.696Z,4.50
2023-02-05T07:30:09.595Z,4.50
2023-02-05T07:31:09.769Z,6.00
2023-02-05T07:32:09.778Z,7.00
2023-02-05T07:33:09.619Z,6.50
2023-02-05T07:34:09.669Z,5.00
2023-02-05T07:35:09.654Z,3.50
2023-02-05T07:36:09.782Z,4.50
2023-02-05T07:37:09.793Z,4.10
2023-02-05T07:38:09.671Z,5.20
2023-02-05T07:39:09.815Z,8.00
2023-02-05T07:40:09.725Z,4.50
2023-02-05T07:41:09.845Z,4.10
2023-02-05T07:42:09.852Z,4.50
2023-02-05T07:43:09.864Z,5.00
2023-02-05T07:44:09.750Z,4.10
2023-02-05T07:45:09.769Z,5.70
2023-02-05T07:46:09.770Z,4.30
2023-02-05T07:47:09.937Z,4.30
2023-02-05T07:48:09.924Z,4.10
2023-02-05T07:49:09.809Z,5.50
2023-02-05T07:50:09.856Z,4.00
2023-02-05T07:51:09.960Z,5.30
2023-02-05T07:52:09.873Z,4.50
2023-02-05T07:53:09.984Z,4.30
2023-02-05T07:54:09.888Z,5.90
2023-02-05T07:55:09.894Z,6.20
2023-02-05T07:56:10.021Z,5.50
2023-02-05T07:57:10.035Z,5.20
2023-02-05T07:58:10.046Z,4.90
2023-02-05T07:59:10.066Z,5.30
2023-02-05T08:00:09.934Z,5.10
2023-02-05T08:01:10.095Z,4.60
2023-02-05T08:02:09.987Z,5.50
2023-02-05T08:03:10.111Z,4.90
2023-02-05T08:04:10.159Z,5.80
2023-02-05T08:05:10.000Z,4.80
2023-02-05T08:06:10.070Z,5.30
2023-02-05T08:07:10.158Z,4.90
2023-02-05T08:08:10.040Z,4.60
2023-02-05T08:09:10.181Z,5.20
2023-02-05T08:10:10.194Z,5.30
2023-02-05T08:11:10.092Z,5.10
2023-02-05T08:12:10.093Z,5.20
2023-02-05T08:13:10.232Z,4.80
2023-02-05T08:14:10.108Z,5.10
2023-02-05T08:15:10.260Z,5.30
2023-02-05T08:16:10.158Z,7.00
2023-02-05T08:17:10.145Z,5.10
2023-02-05T08:18:10.178Z,4.80
2023-02-05T08:19:12.576Z,4.80
2023-02-05T08:20:10.323Z,6.10
2023-02-05T08:21:10.331Z,4.80
2023-02-05T08:22:10.244Z,4.90
2023-02-05T08:23:10.221Z,5.70
2023-02-05T08:24:10.238Z,6.00
2023-02-05T08:25:10.378Z,6.50
2023-02-05T08:26:10.391Z,5.40
2023-02-05T08:27:10.404Z,5.30
2023-02-05T08:28:10.330Z,5.10
2023-02-05T08:29:10.431Z,5.00
2023-02-05T08:30:10.307Z,5.90
2023-02-05T08:31:10.321Z,5.20
2023-02-05T08:32:10.328Z,4.40
2023-02-05T08:33:10.475Z,4.40
2023-02-05T08:34:10.502Z,4.50
2023-02-05T08:35:10.503Z,4.40
2023-02-05T08:36:10.408Z,4.60
2023-02-05T08:37:10.526Z,4.40
2023-02-05T08:38:10.539Z,4.50
2023-02-05T08:39:10.550Z,4.20
2023-02-05T08:40:10.439Z,4.50
2023-02-05T08:41:10.463Z,5.60
2023-02-05T08:42:10.586Z,6.50
2023-02-05T08:43:10.597Z,4.30
2023-02-05T08:44:10.488Z,5.10
2023-02-05T08:45:10.627Z,5.00
2023-02-05T08:46:10.616Z,5.10
2023-02-05T08:47:10.650Z,5.40
2023-02-05T08:48:10.548Z,6.00
2023-02-05T08:49:10.669Z,5.00
2023-02-05T08:50:10.560Z,4.60
2023-02-05T08:51:10.560Z,4.10
2023-02-05T08:52:10.572Z,4.30
2023-02-05T08:53:10.728Z,4.40
2023-02-05T08:54:10.627Z,4.70
2023-02-05T08:55:10.746Z,4.40
2023-02-05T08:56:10.884Z,4.10
2023-02-05T08:57:10.647Z,4.40
2023-02-05T08:58:10.665Z,5.50
2023-02-05T08:59:10.790Z,3.70
2023-02-05T09:00:10.687Z,4.80
2023-02-05T09:01:10.892Z,4.60
2023-02-05T09:02:10.712Z,4.20
2023-02-05T09:03:10.882Z,6.30
2023-02-05T09:04:10.808Z,4.50
2023-02-05T09:05:10.900Z,4.80
2023-02-05T09:06:10.749Z,4.20
2023-02-05T09:07:10.765Z,4.00
2023-02-05T09:08:10.773Z,4.30
2023-02-05T09:09:10.923Z,5.70
2023-02-05T09:10:10.836Z,4.60
2023-02-05T09:11:11.822Z,4.00
2023-02-05T09:12:10.883Z,5.50
2023-02-05T09:13:10.973Z,5.90
2023-02-05T09:14:10.856Z,4.30
2023-02-05T09:15:10.999Z,4.20
2023-02-05T09:16:10.869Z,4.10
2023-02-05T09:17:11.015Z,4.70
2023-02-05T09:18:10.918Z,4.00
2023-02-05T09:19:10.911Z,4.00
2023-02-05T09:20:10.925Z,3.80
2023-02-05T09:21:11.075Z,5.70
2023-02-05T09:22:11.096Z,5.10
2023-02-05T09:23:11.092Z,4.20
2023-02-05T09:24:10.983Z,4.50
2023-02-05T09:25:11.120Z,3.70
2023-02-05T09:26:11.143Z,4.90
2023-02-05T09:27:11.146Z,4.80
2023-02-05T09:28:11.059Z,4.80
2023-02-05T09:29:11.057Z,4.30
2023-02-05T09:30:11.131Z,6.00
2023-02-05T09:31:11.267Z,4.10
2023-02-05T09:32:11.096Z,3.70
2023-02-05T09:33:11.227Z,4.10
2023-02-05T09:34:11.109Z,5.50
2023-02-05T09:35:11.249Z,4.10
2023-02-05T09:36:11.134Z,4.50
2023-02-05T09:37:11.278Z,4.90
2023-02-05T09:38:11.185Z,4.20
2023-02-05T09:39:18.455Z,4.40
2023-02-05T09:40:21.008Z,5.00
2023-02-05T09:41:11.213Z,6.40
2023-02-05T09:42:11.332Z,3.80
2023-02-05T09:43:11.231Z,3.60
2023-02-05T09:44:11.241Z,3.90
2023-02-05T09:45:11.385Z,4.70
2023-02-05T09:46:11.313Z,3.80
2023-02-05T09:47:11.283Z,3.90
2023-02-05T09:48:11.307Z,3.80
2023-02-05T09:49:11.447Z,3.90
2023-02-05T09:50:11.455Z,3.70
2023-02-05T09:51:11.465Z,4.60
2023-02-05T09:52:11.345Z,4.30
2023-02-05T09:53:11.502Z,4.60
2023-02-05T09:54:11.395Z,4.50
2023-02-05T09:55:11.530Z,3.30
2023-02-05T09:56:11.532Z,3.90
2023-02-05T09:57:11.547Z,3.60
2023-02-05T09:58:11.473Z,3.30
2023-02-05T09:59:11.574Z,4.40
2023-02-05T10:00:11.474Z,4.40
2023-02-05T10:01:11.627Z,4.30
2023-02-05T10:02:11.618Z,5.10
2023-02-05T10:03:11.507Z,4.70
2023-02-05T10:04:11.614Z,5.40
2023-02-05T10:05:11.659Z,3.70
2023-02-05T10:06:11.542Z,5.40
2023-02-05T10:07:11.686Z,4.30
2023-02-05T10:08:11.701Z,3.20
2023-02-05T10:09:11.582Z,5.80
2023-02-05T10:10:11.617Z,6.40
2023-02-05T10:11:11.747Z,4.30
2023-02-05T10:12:11.622Z,3.60
2023-02-05T10:13:11.771Z,4.50
2023-02-05T10:14:11.704Z,3.70
2023-02-05T10:15:11.688Z,5.40
2023-02-05T10:16:11.823Z,5.60
2023-02-05T10:17:11.835Z,4.50
2023-02-05T10:18:11.715Z,4.00
2023-02-05T10:19:11.860Z,3.40
2023-02-05T10:20:11.752Z,3.80
2023-02-05T10:21:11.906Z,4.70
2023-02-05T10:22:11.970Z,4.00
2023-02-05T10:23:11.918Z,3.00
2023-02-05T10:24:11.798Z,4.60
2023-02-05T10:25:11.947Z,5.20
2023-02-05T10:26:11.858Z,12.40
2023-02-05T10:27:11.982Z,28.20
2023-02-05T10:28:12.015Z,17.90
2023-02-05T10:29:11.886Z,9.60
2023-02-05T10:30:11.927Z,9.60
2023-02-05T10:31:12.185Z,7.60
2023-02-05T10:32:11.943Z,6.10
2023-02-05T10:33:12.078Z,7.60
2023-02-05T10:34:12.091Z,5.90
2023-02-05T10:35:11.979Z,6.40
2023-02-05T10:36:11.992Z,6.00
2023-02-05T10:37:12.145Z,5.60
2023-02-05T10:38:12.027Z,6.20
2023-02-05T10:39:12.048Z,6.30
2023-02-05T10:40:12.064Z,8.50
2023-02-05T10:41:12.202Z,8.40
2023-02-05T10:42:12.084Z,7.00
2023-02-05T10:43:12.103Z,7.10
2023-02-05T10:44:12.125Z,7.40
2023-02-05T10:45:12.262Z,7.10
2023-02-05T10:46:12.326Z,7.00
2023-02-05T10:47:12.295Z,6.90
2023-02-05T10:48:12.167Z,6.70
2023-02-05T10:49:12.324Z,6.90
2023-02-05T10:50:12.245Z,9.30
2023-02-05T10:51:12.342Z,7.10
2023-02-05T10:52:12.224Z,7.60
2023-02-05T10:53:12.373Z,7.60
2023-02-05T10:54:12.251Z,7.40
2023-02-05T10:55:12.281Z,7.70
2023-02-05T10:56:12.412Z,8.10
2023-02-05T10:57:12.428Z,8.20
2023-02-05T10:58:12.309Z,8.30
2023-02-05T10:59:12.455Z,8.40
2023-02-05T11:00:12.381Z,9.30
2023-02-05T11:01:12.483Z,9.30
2023-02-05T11:02:12.386Z,9.10
2023-02-05T11:03:12.507Z,9.40
2023-02-05T11:04:12.529Z,9.00
2023-02-05T11:05:12.401Z,9.50
2023-02-05T11:06:12.548Z,9.30
2023-02-05T11:07:12.561Z,9.70
2023-02-05T11:08:12.576Z,9.00
2023-02-05T11:09:12.586Z,9.40
2023-02-05T11:10:12.488Z,9.10
2023-02-05T11:11:12.612Z,9.60
2023-02-05T11:12:12.492Z,10.00
2023-02-05T11:13:12.646Z,10.40
2023-02-05T11:14:12.525Z,9.10
2023-02-05T11:15:12.666Z,8.30
2023-02-05T11:16:12.629Z,8.90
2023-02-05T11:17:12.689Z,8.50
2023-02-05T11:18:12.613Z,8.50
2023-02-05T11:19:14.777Z,7.10
2023-02-05T11:20:12.730Z,7.10
2023-02-05T11:21:12.624Z,8.00
2023-02-05T11:22:12.627Z,7.20
2023-02-05T11:23:12.769Z,6.60
2023-02-05T11:24:12.649Z,7.70
2023-02-05T11:25:12.800Z,9.50
2023-02-05T11:26:12.679Z,9.20
2023-02-05T11:27:12.823Z,8.60
2023-02-05T11:28:12.711Z,8.10
2023-02-05T11:29:12.849Z,7.60
2023-02-05T11:30:12.732Z,6.90
2023-02-05T11:31:12.800Z,5.90
2023-02-05T11:32:13.965Z,5.60
2023-02-05T11:33:12.906Z,4.50
2023-02-05T11:34:12.821Z,5.30
2023-02-05T11:35:12.933Z,4.80
2023-02-05T11:36:12.815Z,4.40
2023-02-05T11:37:12.963Z,6.10
2023-02-05T11:38:12.862Z,5.20
2023-02-05T11:39:12.996Z,6.10
2023-02-05T11:40:13.010Z,4.30
2023-02-05T11:41:12.914Z,3.90
2023-02-05T11:42:12.933Z,4.00
2023-02-05T11:43:12.927Z,4.50
2023-02-05T11:44:13.074Z,4.40
2023-02-05T11:45:12.961Z,5.30
2023-02-05T11:46:13.154Z,4.70
2023-02-05T11:47:12.998Z,4.10
2023-02-05T11:48:13.149Z,5.50
2023-02-05T11:49:13.167Z,4.60
2023-02-05T11:50:13.173Z,4.70
2023-02-05T11:51:13.057Z,11.80
2023-02-05T11:52:13.206Z,11.70
2023-02-05T11:53:13.083Z,6.30
2023-02-05T11:54:13.238Z,5.50
2023-02-05T11:55:13.120Z,4.90
2023-02-05T11:56:13.268Z,4.60
2023-02-05T11:57:13.178Z,5.20
2023-02-05T11:58:13.186Z,6.90
2023-02-05T11:59:13.197Z,9.60
2023-02-05T12:00:13.335Z,6.40
2023-02-05T12:01:13.223Z,5.20
2023-02-05T12:02:13.400Z,5.30
2023-02-05T12:03:13.301Z,5.30
2023-02-05T12:04:13.397Z,5.50
2023-02-05T12:05:13.453Z,7.10
2023-02-05T12:06:13.434Z,4.50
2023-02-05T12:07:13.443Z,4.40
2023-02-05T12:08:13.474Z,4.90
2023-02-05T12:09:13.348Z,5.00
2023-02-05T12:10:13.380Z,5.10
2023-02-05T12:11:13.513Z,5.20
2023-02-05T12:12:13.528Z,5.20
2023-02-05T12:13:13.543Z,4.50
2023-02-05T12:14:13.570Z,4.80
2023-02-05T12:15:13.460Z,5.00
2023-02-05T12:16:13.629Z,6.60
2023-02-05T12:17:13.481Z,4.90
2023-02-05T12:18:13.634Z,5.00
2023-02-05T12:19:13.528Z,4.40
2023-02-05T12:20:13.541Z,4.40
2023-02-05T12:21:13.560Z,4.80
2023-02-05T12:22:13.704Z,6.30
2023-02-05T12:23:13.589Z,5.00
2023-02-05T12:24:13.741Z,4.50
2023-02-05T12:25:13.641Z,5.10
2023-02-05T12:26:13.654Z,5.50
2023-02-05T12:27:13.796Z,4.40
2023-02-05T12:28:13.837Z,4.40
2023-02-05T12:29:13.719Z,5.10
2023-02-05T12:30:13.849Z,5.30
2023-02-05T12:31:13.759Z,5.20
2023-02-05T12:32:13.762Z,4.50
2023-02-05T12:33:13.910Z,4.70
2023-02-05T12:34:13.921Z,4.80
2023-02-05T12:35:13.826Z,5.50
2023-02-05T12:36:13.955Z,6.40
2023-02-05T12:37:13.971Z,8.30
2023-02-05T12:38:21.270Z,11.60
2023-02-05T12:39:14.005Z,7.50
2023-02-05T12:40:14.063Z,6.80
2023-02-05T12:41:13.921Z,8.40
2023-02-05T12:42:13.926Z,10.60
2023-02-05T12:43:13.935Z,10.40
2023-02-05T12:44:14.087Z,16.10
2023-02-05T12:45:13.991Z,11.60
2023-02-05T12:46:14.033Z,10.60
2023-02-05T12:47:14.003Z,12.00
2023-02-05T12:48:14.148Z,11.10
2023-02-05T12:49:14.032Z,10.30
2023-02-05T12:50:14.192Z,10.60
2023-02-05T12:51:14.085Z,10.60
2023-02-05T12:52:14.305Z,9.40
2023-02-05T12:53:14.095Z,10.10
2023-02-05T12:54:14.139Z,10.40
2023-02-05T12:55:14.250Z,9.00
2023-02-05T12:56:14.265Z,9.60
2023-02-05T12:57:14.280Z,9.40
2023-02-05T12:58:14.293Z,9.90
2023-02-05T12:59:14.190Z,9.40
2023-02-05T13:00:14.331Z,9.90
2023-02-05T13:01:14.356Z,7.90
2023-02-05T13:02:14.351Z,7.10
2023-02-05T13:03:14.239Z,7.20
2023-02-05T13:04:14.563Z,7.20
2023-02-05T13:05:14.268Z,7.10
2023-02-05T13:06:14.408Z,7.70
2023-02-05T13:07:14.420Z,7.90
2023-02-05T13:08:14.436Z,6.70
2023-02-05T13:09:14.451Z,6.20
2023-02-05T13:10:14.378Z,5.80
2023-02-05T13:11:14.357Z,6.10
2023-02-05T13:12:14.496Z,5.90
2023-02-05T13:13:14.382Z,5.60
2023-02-05T13:14:14.533Z,5.80
2023-02-05T13:15:14.544Z,4.90
2023-02-05T13:16:14.586Z,4.80
2023-02-05T13:17:14.577Z,5.10